sensor_id;sensor_type;location;lat;lon;timestamp;P1;durP1;ratioP1;P2;durP2;ratioP2
2486;SDS011;1254;49.144;8.212;2022-09-01T00:00:45;6.83;;;6.30;;
2486;SDS011;1254;49.144;8.212;2022-09-01T00:03:18;8.10;;;6.40;;
2486;SDS011;1254;49.144;8.212;2022-09-01T00:05:50;7.10;;;6.50;;
2486;SDS011;1254;49.144;8.212;2022-09-01T00:08:20;7.87;;;7.17;;
2486;SDS011;1254;49.144;8.212;2022-09-01T00:10:47;6.70;;;6.10;;
2486;SDS011;1254;49.144;8.212;2022-09-01T00:13:14;7.03;;;6.50;;
2486;SDS011;1254;49.144;8.212;2022-09-01T00:15:40;7.27;;;6.20;;
2486;SDS011;1254;49.144;8.212;2022-09-01T00:18:07;9.70;;;6.63;;
2486;SDS011;1254;49.144;8.212;2022-09-01T00:20:34;6.57;;;5.97;;
2486;SDS011;1254;49.144;8.212;2022-09-01T00:23:00;6.33;;;5.83;;
2486;SDS011;1254;49.144;8.212;2022-09-01T00:25:27;7.40;;;6.70;;
2486;SDS011;1254;49.144;8.212;2022-09-01T00:27:54;6.70;;;6.20;;
2486;SDS011;1254;49.144;8.212;2022-09-01T00:30:25;6.63;;;6.13;;
2486;SDS011;1254;49.144;8.212;2022-09-01T00:32:52;7.27;;;5.90;;
2486;SDS011;1254;49.144;8.212;2022-09-01T00:35:18;6.60;;;6.10;;
2486;SDS011;1254;49.144;8.212;2022-09-01T00:37:45;7.03;;;6.43;;
2486;SDS011;1254;49.144;8.212;2022-09-01T00:40:13;6.83;;;6.23;;
2486;SDS011;1254;49.144;8.212;2022-09-01T00:42:42;7.37;;;6.70;;
2486;SDS011;1254;49.144;8.212;2022-09-01T00:45:09;7.30;;;6.30;;
2486;SDS011;1254;49.144;8.212;2022-09-01T00:47:36;6.70;;;6.20;;
2486;SDS011;1254;49.144;8.212;2022-09-01T00:50:03;8.90;;;6.50;;
2486;SDS011;1254;49.144;8.212;2022-09-01T00:52:33;7.00;;;6.40;;
2486;SDS011;1254;49.144;8.212;2022-09-01T00:55:05;6.47;;;5.87;;
2486;SDS011;1254;49.144;8.212;2022-09-01T00:57:36;6.93;;;6.33;;
2486;SDS011;1254;49.144;8.212;2022-09-01T01:00:06;6.80;;;6.00;;
2486;SDS011;1254;49.144;8.212;2022-09-01T01:02:37;7.50;;;6.80;;
2486;SDS011;1254;49.144;8.212;2022-09-01T01:05:06;7.27;;;6.50;;
2486;SDS011;1254;49.144;8.212;2022-09-01T01:07:34;7.03;;;6.43;;
2486;SDS011;1254;49.144;8.212;2022-09-01T01:10:05;6.73;;;6.17;;
2486;SDS011;1254;49.144;8.212;2022-09-01T01:12:32;6.33;;;5.73;;
2486;SDS011;1254;49.144;8.212;2022-09-01T01:15:06;7.00;;;6.30;;
2486;SDS011;1254;49.144;8.212;2022-09-01T01:17:33;6.67;;;6.17;;
2486;SDS011;1254;49.144;8.212;2022-09-01T01:20:01;7.30;;;6.70;;
2486;SDS011;1254;49.144;8.212;2022-09-01T01:23:05;6.97;;;6.40;;
2486;SDS011;1254;49.144;8.212;2022-09-01T01:25:48;6.87;;;6.37;;
2486;SDS011;1254;49.144;8.212;2022-09-01T01:28:22;6.47;;;5.90;;
2486;SDS011;1254;49.144;8.212;2022-09-01T01:30:57;7.10;;;6.40;;
2486;SDS011;1254;49.144;8.212;2022-09-01T01:33:34;6.50;;;6.00;;
2486;SDS011;1254;49.144;8.212;2022-09-01T01:36:10;8.33;;;7.10;;
2486;SDS011;1254;49.144;8.212;2022-09-01T01:38:45;7.37;;;6.57;;
2486;SDS011;1254;49.144;8.212;2022-09-01T01:41:13;8.20;;;6.40;;
2486;SDS011;1254;49.144;8.212;2022-09-01T01:43:44;8.27;;;6.87;;
2486;SDS011;1254;49.144;8.212;2022-09-01T01:46:13;7.40;;;6.80;;
2486;SDS011;1254;49.144;8.212;2022-09-01T01:48:40;7.33;;;6.57;;
2486;SDS011;1254;49.144;8.212;2022-09-01T01:51:08;7.53;;;6.70;;
2486;SDS011;1254;49.144;8.212;2022-09-01T01:53:36;7.70;;;6.97;;
2486;SDS011;1254;49.144;8.212;2022-09-01T01:56:03;6.70;;;6.20;;
2486;SDS011;1254;49.144;8.212;2022-09-01T01:58:31;7.90;;;6.80;;
2486;SDS011;1254;49.144;8.212;2022-09-01T02:00:59;12.60;;;7.03;;
2486;SDS011;1254;49.144;8.212;2022-09-01T02:03:30;7.63;;;7.03;;
2486;SDS011;1254;49.144;8.212;2022-09-01T02:06:04;7.97;;;7.27;;
2486;SDS011;1254;49.144;8.212;2022-09-01T02:08:33;6.63;;;6.00;;
2486;SDS011;1254;49.144;8.212;2022-09-01T02:11:01;7.47;;;6.67;;
2486;SDS011;1254;49.144;8.212;2022-09-01T02:13:30;7.60;;;6.70;;
2486;SDS011;1254;49.144;8.212;2022-09-01T02:15:58;7.40;;;6.73;;
2486;SDS011;1254;49.144;8.212;2022-09-01T02:18:34;7.50;;;6.90;;
2486;SDS011;1254;49.144;8.212;2022-09-01T02:21:03;6.77;;;6.20;;
2486;SDS011;1254;49.144;8.212;2022-09-01T02:23:36;8.40;;;7.00;;
2486;SDS011;1254;49.144;8.212;2022-09-01T02:26:05;7.40;;;6.80;;
2486;SDS011;1254;49.144;8.212;2022-09-01T02:28:37;8.30;;;7.50;;
2486;SDS011;1254;49.144;8.212;2022-09-01T02:31:07;7.50;;;6.73;;
2486;SDS011;1254;49.144;8.212;2022-09-01T02:33:36;6.63;;;6.07;;
2486;SDS011;1254;49.144;8.212;2022-09-01T02:36:08;8.93;;;7.70;;
2486;SDS011;1254;49.144;8.212;2022-09-01T02:38:40;7.47;;;6.83;;
2486;SDS011;1254;49.144;8.212;2022-09-01T02:41:09;7.53;;;6.80;;
2486;SDS011;1254;49.144;8.212;2022-09-01T02:43:38;7.57;;;7.00;;
2486;SDS011;1254;49.144;8.212;2022-09-01T02:46:05;7.87;;;7.27;;
2486;SDS011;1254;49.144;8.212;2022-09-01T02:48:33;7.83;;;7.23;;
2486;SDS011;1254;49.144;8.212;2022-09-01T02:51:04;10.70;;;6.47;;
2486;SDS011;1254;49.144;8.212;2022-09-01T02:53:35;7.20;;;6.70;;
2486;SDS011;1254;49.144;8.212;2022-09-01T02:56:05;8.40;;;7.13;;
2486;SDS011;1254;49.144;8.212;2022-09-01T02:58:39;12.83;;;7.57;;
2486;SDS011;1254;49.144;8.212;2022-09-01T03:01:14;8.30;;;7.60;;
2486;SDS011;1254;49.144;8.212;2022-09-01T03:03:45;6.77;;;6.07;;
2486;SDS011;1254;49.144;8.212;2022-09-01T03:06:12;7.27;;;6.67;;
2486;SDS011;1254;49.144;8.212;2022-09-01T03:08:39;9.43;;;8.13;;
2486;SDS011;1254;49.144;8.212;2022-09-01T03:11:06;7.43;;;6.90;;
2486;SDS011;1254;49.144;8.212;2022-09-01T03:13:36;7.30;;;6.70;;
2486;SDS011;1254;49.144;8.212;2022-09-01T03:16:05;7.63;;;7.03;;
2486;SDS011;1254;49.144;8.212;2022-09-01T03:18:32;7.50;;;6.80;;
2486;SDS011;1254;49.144;8.212;2022-09-01T03:21:00;8.50;;;7.67;;
2486;SDS011;1254;49.144;8.212;2022-09-01T03:23:27;6.73;;;6.23;;
2486;SDS011;1254;49.144;8.212;2022-09-01T03:25:56;7.40;;;6.80;;
2486;SDS011;1254;49.144;8.212;2022-09-01T03:28:23;8.97;;;6.77;;
2486;SDS011;1254;49.144;8.212;2022-09-01T03:30:50;7.87;;;7.17;;
2486;SDS011;1254;49.144;8.212;2022-09-01T03:33:19;7.40;;;6.80;;
2486;SDS011;1254;49.144;8.212;2022-09-01T03:35:47;8.13;;;7.43;;
2486;SDS011;1254;49.144;8.212;2022-09-01T03:38:13;12.57;;;7.70;;
2486;SDS011;1254;49.144;8.212;2022-09-01T03:40:49;8.07;;;7.27;;
2486;SDS011;1254;49.144;8.212;2022-09-01T03:43:18;13.57;;;6.83;;
2486;SDS011;1254;49.144;8.212;2022-09-01T03:45:48;8.10;;;7.20;;
2486;SDS011;1254;49.144;8.212;2022-09-01T03:48:15;6.80;;;6.20;;
2486;SDS011;1254;49.144;8.212;2022-09-01T03:50:42;7.50;;;6.70;;
2486;SDS011;1254;49.144;8.212;2022-09-01T03:53:10;8.00;;;7.40;;
2486;SDS011;1254;49.144;8.212;2022-09-01T03:55:45;8.20;;;7.30;;
2486;SDS011;1254;49.144;8.212;2022-09-01T03:58:13;7.40;;;6.80;;
2486;SDS011;1254;49.144;8.212;2022-09-01T04:00:45;11.70;;;6.90;;
2486;SDS011;1254;49.144;8.212;2022-09-01T04:03:14;8.00;;;7.40;;
2486;SDS011;1254;49.144;8.212;2022-09-01T04:05:48;10.43;;;7.40;;
2486;SDS011;1254;49.144;8.212;2022-09-01T04:08:16;7.50;;;6.90;;
2486;SDS011;1254;49.144;8.212;2022-09-01T04:10:48;8.40;;;7.60;;
2486;SDS011;1254;49.144;8.212;2022-09-01T04:13:17;11.60;;;7.60;;
2486;SDS011;1254;49.144;8.212;2022-09-01T04:15:46;9.70;;;7.50;;
2486;SDS011;1254;49.144;8.212;2022-09-01T04:18:13;7.00;;;6.50;;
2486;SDS011;1254;49.144;8.212;2022-09-01T04:20:47;7.83;;;7.27;;
2486;SDS011;1254;49.144;8.212;2022-09-01T04:23:22;8.00;;;7.30;;
2486;SDS011;1254;49.144;8.212;2022-09-01T04:28:23;8.57;;;7.77;;
2486;SDS011;1254;49.144;8.212;2022-09-01T04:30:55;9.53;;;7.17;;
2486;SDS011;1254;49.144;8.212;2022-09-01T04:33:26;8.10;;;7.40;;
2486;SDS011;1254;49.144;8.212;2022-09-01T04:35:59;7.27;;;6.77;;
2486;SDS011;1254;49.144;8.212;2022-09-01T04:38:27;7.90;;;7.23;;
2486;SDS011;1254;49.144;8.212;2022-09-01T04:40:54;8.10;;;7.43;;
2486;SDS011;1254;49.144;8.212;2022-09-01T04:43:22;9.30;;;7.50;;
2486;SDS011;1254;49.144;8.212;2022-09-01T04:45:49;8.33;;;6.77;;
2486;SDS011;1254;49.144;8.212;2022-09-01T04:48:17;7.57;;;6.97;;
2486;SDS011;1254;49.144;8.212;2022-09-01T04:50:47;7.70;;;7.10;;
2486;SDS011;1254;49.144;8.212;2022-09-01T04:53:14;7.43;;;6.73;;
2486;SDS011;1254;49.144;8.212;2022-09-01T04:55:43;7.40;;;6.70;;
2486;SDS011;1254;49.144;8.212;2022-09-01T04:58:13;7.90;;;7.20;;
2486;SDS011;1254;49.144;8.212;2022-09-01T05:00:43;9.97;;;6.80;;
2486;SDS011;1254;49.144;8.212;2022-09-01T05:03:13;8.23;;;7.53;;
2486;SDS011;1254;49.144;8.212;2022-09-01T05:05:41;7.07;;;6.50;;
2486;SDS011;1254;49.144;8.212;2022-09-01T05:08:10;7.83;;;7.10;;
2486;SDS011;1254;49.144;8.212;2022-09-01T05:10:43;7.20;;;6.70;;
2486;SDS011;1254;49.144;8.212;2022-09-01T05:13:12;7.70;;;7.10;;
2486;SDS011;1254;49.144;8.212;2022-09-01T05:15:43;7.50;;;6.80;;
2486;SDS011;1254;49.144;8.212;2022-09-01T05:18:13;7.47;;;6.80;;
2486;SDS011;1254;49.144;8.212;2022-09-01T05:20:50;7.87;;;6.63;;
2486;SDS011;1254;49.144;8.212;2022-09-01T05:23:18;7.10;;;6.40;;
2486;SDS011;1254;49.144;8.212;2022-09-01T05:25:49;6.80;;;6.20;;
2486;SDS011;1254;49.144;8.212;2022-09-01T05:28:19;9.37;;;6.87;;
2486;SDS011;1254;49.144;8.212;2022-09-01T05:30:50;6.50;;;5.90;;
2486;SDS011;1254;49.144;8.212;2022-09-01T05:33:19;7.47;;;6.87;;
2486;SDS011;1254;49.144;8.212;2022-09-01T05:35:53;6.97;;;6.40;;
2486;SDS011;1254;49.144;8.212;2022-09-01T05:38:21;8.03;;;7.43;;
2486;SDS011;1254;49.144;8.212;2022-09-01T05:40:57;7.53;;;6.87;;
2486;SDS011;1254;49.144;8.212;2022-09-01T05:43:29;8.30;;;7.70;;
2486;SDS011;1254;49.144;8.212;2022-09-01T05:45:57;7.73;;;6.93;;
2486;SDS011;1254;49.144;8.212;2022-09-01T05:48:23;11.93;;;7.10;;
2486;SDS011;1254;49.144;8.212;2022-09-01T05:50:50;9.37;;;7.33;;
2486;SDS011;1254;49.144;8.212;2022-09-01T05:53:22;11.17;;;7.33;;
2486;SDS011;1254;49.144;8.212;2022-09-01T05:55:51;9.07;;;7.53;;
2486;SDS011;1254;49.144;8.212;2022-09-01T05:58:25;8.17;;;7.47;;
2486;SDS011;1254;49.144;8.212;2022-09-01T06:00:53;7.23;;;6.63;;
2486;SDS011;1254;49.144;8.212;2022-09-01T06:03:24;8.27;;;7.53;;
2486;SDS011;1254;49.144;8.212;2022-09-01T06:05:52;9.47;;;7.70;;
2486;SDS011;1254;49.144;8.212;2022-09-01T06:08:22;8.77;;;7.90;;
2486;SDS011;1254;49.144;8.212;2022-09-01T06:10:50;10.90;;;8.80;;
2486;SDS011;1254;49.144;8.212;2022-09-01T06:13:17;9.87;;;8.00;;
2486;SDS011;1254;49.144;8.212;2022-09-01T06:15:49;12.63;;;9.10;;
2486;SDS011;1254;49.144;8.212;2022-09-01T06:18:18;9.07;;;7.27;;
2486;SDS011;1254;49.144;8.212;2022-09-01T06:20:46;13.70;;;8.57;;
2486;SDS011;1254;49.144;8.212;2022-09-01T06:23:14;10.13;;;9.20;;
2486;SDS011;1254;49.144;8.212;2022-09-01T06:25:43;15.93;;;9.10;;
2486;SDS011;1254;49.144;8.212;2022-09-01T06:28:12;14.07;;;8.83;;
2486;SDS011;1254;49.144;8.212;2022-09-01T06:30:39;12.70;;;9.40;;
2486;SDS011;1254;49.144;8.212;2022-09-01T06:33:07;9.07;;;8.30;;
2486;SDS011;1254;49.144;8.212;2022-09-01T06:35:36;14.87;;;10.00;;
2486;SDS011;1254;49.144;8.212;2022-09-01T06:38:04;9.03;;;8.23;;
2486;SDS011;1254;49.144;8.212;2022-09-01T06:40:32;16.30;;;9.23;;
2486;SDS011;1254;49.144;8.212;2022-09-01T06:43:00;13.47;;;9.10;;
2486;SDS011;1254;49.144;8.212;2022-09-01T06:45:33;9.00;;;8.10;;
2486;SDS011;1254;49.144;8.212;2022-09-01T06:48:05;10.23;;;8.53;;
2486;SDS011;1254;49.144;8.212;2022-09-01T06:50:32;11.33;;;9.17;;
2486;SDS011;1254;49.144;8.212;2022-09-01T06:52:59;11.60;;;9.10;;
2486;SDS011;1254;49.144;8.212;2022-09-01T06:55:43;10.50;;;9.40;;
2486;SDS011;1254;49.144;8.212;2022-09-01T06:58:13;11.37;;;10.53;;
2486;SDS011;1254;49.144;8.212;2022-09-01T07:00:41;11.53;;;9.90;;
2486;SDS011;1254;49.144;8.212;2022-09-01T07:03:08;12.43;;;10.53;;
2486;SDS011;1254;49.144;8.212;2022-09-01T07:05:37;10.10;;;9.20;;
2486;SDS011;1254;49.144;8.212;2022-09-01T07:08:05;11.47;;;10.47;;
2486;SDS011;1254;49.144;8.212;2022-09-01T07:10:39;13.77;;;10.83;;
2486;SDS011;1254;49.144;8.212;2022-09-01T07:13:14;13.50;;;12.20;;
2486;SDS011;1254;49.144;8.212;2022-09-01T07:15:49;14.50;;;10.43;;
2486;SDS011;1254;49.144;8.212;2022-09-01T07:18:18;11.60;;;10.50;;
2486;SDS011;1254;49.144;8.212;2022-09-01T07:20:47;10.80;;;9.80;;
2486;SDS011;1254;49.144;8.212;2022-09-01T07:23:14;11.87;;;10.77;;
2486;SDS011;1254;49.144;8.212;2022-09-01T07:25:45;12.63;;;11.43;;
2486;SDS011;1254;49.144;8.212;2022-09-01T07:28:14;12.50;;;11.50;;
2486;SDS011;1254;49.144;8.212;2022-09-01T07:30:42;12.90;;;11.60;;
2486;SDS011;1254;49.144;8.212;2022-09-01T07:33:14;13.40;;;11.00;;
2486;SDS011;1254;49.144;8.212;2022-09-01T07:35:45;14.10;;;11.30;;
2486;SDS011;1254;49.144;8.212;2022-09-01T07:38:12;11.83;;;10.83;;
2486;SDS011;1254;49.144;8.212;2022-09-01T07:40:39;11.93;;;10.83;;
2486;SDS011;1254;49.144;8.212;2022-09-01T07:43:07;11.87;;;10.03;;
2486;SDS011;1254;49.144;8.212;2022-09-01T07:45:42;11.87;;;10.77;;
2486;SDS011;1254;49.144;8.212;2022-09-01T07:48:12;12.83;;;11.53;;
2486;SDS011;1254;49.144;8.212;2022-09-01T07:50:40;11.90;;;10.73;;
2486;SDS011;1254;49.144;8.212;2022-09-01T07:53:15;20.27;;;12.90;;
2486;SDS011;1254;49.144;8.212;2022-09-01T07:55:44;11.50;;;10.13;;
2486;SDS011;1254;49.144;8.212;2022-09-01T07:58:12;11.03;;;9.90;;
2486;SDS011;1254;49.144;8.212;2022-09-01T08:00:39;13.60;;;12.20;;
2486;SDS011;1254;49.144;8.212;2022-09-01T08:03:08;13.40;;;12.00;;
2486;SDS011;1254;49.144;8.212;2022-09-01T08:05:34;12.00;;;10.70;;
2486;SDS011;1254;49.144;8.212;2022-09-01T08:08:01;10.93;;;9.97;;
2486;SDS011;1254;49.144;8.212;2022-09-01T08:10:28;12.33;;;10.03;;
2486;SDS011;1254;49.144;8.212;2022-09-01T08:12:54;20.50;;;13.47;;
2486;SDS011;1254;49.144;8.212;2022-09-01T08:15:21;13.60;;;12.30;;
2486;SDS011;1254;49.144;8.212;2022-09-01T08:17:48;8.97;;;8.17;;
2486;SDS011;1254;49.144;8.212;2022-09-01T08:20:15;12.20;;;11.10;;
2486;SDS011;1254;49.144;8.212;2022-09-01T08:22:41;12.57;;;11.27;;
2486;SDS011;1254;49.144;8.212;2022-09-01T08:25:09;13.30;;;12.00;;
2486;SDS011;1254;49.144;8.212;2022-09-01T08:27:36;10.00;;;9.20;;
2486;SDS011;1254;49.144;8.212;2022-09-01T08:30:07;11.23;;;10.23;;
2486;SDS011;1254;49.144;8.212;2022-09-01T08:32:38;11.97;;;10.93;;
2486;SDS011;1254;49.144;8.212;2022-09-01T08:35:07;11.17;;;10.10;;
2486;SDS011;1254;49.144;8.212;2022-09-01T08:37:36;13.80;;;10.93;;
2486;SDS011;1254;49.144;8.212;2022-09-01T08:40:04;10.30;;;9.30;;
2486;SDS011;1254;49.144;8.212;2022-09-01T08:45:50;11.47;;;9.83;;
2486;SDS011;1254;49.144;8.212;2022-09-01T08:53:50;10.07;;;9.07;;
2486;SDS011;1254;49.144;8.212;2022-09-01T08:56:26;10.57;;;9.70;;
2486;SDS011;1254;49.144;8.212;2022-09-01T08:58:53;9.10;;;8.40;;
2486;SDS011;1254;49.144;8.212;2022-09-01T09:01:25;9.53;;;8.73;;
2486;SDS011;1254;49.144;8.212;2022-09-01T09:04:16;8.87;;;7.83;;
2486;SDS011;1254;49.144;8.212;2022-09-01T09:06:56;8.40;;;7.60;;
2486;SDS011;1254;49.144;8.212;2022-09-01T09:09:50;8.93;;;8.13;;
2486;SDS011;1254;49.144;8.212;2022-09-01T09:15:25;9.03;;;8.07;;
2486;SDS011;1254;49.144;8.212;2022-09-01T09:18:04;8.40;;;7.67;;
2486;SDS011;1254;49.144;8.212;2022-09-01T09:20:52;6.83;;;6.33;;
2486;SDS011;1254;49.144;8.212;2022-09-01T09:23:31;7.73;;;7.03;;
2486;SDS011;1254;49.144;8.212;2022-09-01T09:26:01;6.10;;;5.70;;
2486;SDS011;1254;49.144;8.212;2022-09-01T09:28:27;7.23;;;6.63;;
2486;SDS011;1254;49.144;8.212;2022-09-01T09:33:56;6.13;;;5.73;;
2486;SDS011;1254;49.144;8.212;2022-09-01T09:36:33;6.27;;;5.73;;
2486;SDS011;1254;49.144;8.212;2022-09-01T09:39:09;8.13;;;6.10;;
2486;SDS011;1254;49.144;8.212;2022-09-01T09:41:41;6.87;;;6.37;;
2486;SDS011;1254;49.144;8.212;2022-09-01T09:46:46;6.20;;;5.30;;
2486;SDS011;1254;49.144;8.212;2022-09-01T09:49:18;7.87;;;7.27;;
2486;SDS011;1254;49.144;8.212;2022-09-01T09:51:46;7.13;;;6.53;;
2486;SDS011;1254;49.144;8.212;2022-09-01T09:54:38;7.30;;;6.13;;
2486;SDS011;1254;49.144;8.212;2022-09-01T09:57:28;6.53;;;5.97;;
2486;SDS011;1254;49.144;8.212;2022-09-01T10:05:21;6.17;;;5.77;;
2486;SDS011;1254;49.144;8.212;2022-09-01T10:07:48;6.37;;;5.87;;
2486;SDS011;1254;49.144;8.212;2022-09-01T10:10:29;11.30;;;7.63;;
2486;SDS011;1254;49.144;8.212;2022-09-01T10:13:03;8.87;;;6.33;;
2486;SDS011;1254;49.144;8.212;2022-09-01T10:15:33;6.77;;;5.97;;
2486;SDS011;1254;49.144;8.212;2022-09-01T10:18:11;5.80;;;5.33;;
2486;SDS011;1254;49.144;8.212;2022-09-01T10:20:45;8.10;;;7.40;;
2486;SDS011;1254;49.144;8.212;2022-09-01T10:23:18;7.30;;;6.60;;
2486;SDS011;1254;49.144;8.212;2022-09-01T10:25:44;7.37;;;6.60;;
2486;SDS011;1254;49.144;8.212;2022-09-01T10:28:16;7.40;;;5.80;;
2486;SDS011;1254;49.144;8.212;2022-09-01T10:30:49;5.93;;;5.53;;
2486;SDS011;1254;49.144;8.212;2022-09-01T10:33:18;6.10;;;5.60;;
2486;SDS011;1254;49.144;8.212;2022-09-01T10:35:50;7.17;;;6.57;;
2486;SDS011;1254;49.144;8.212;2022-09-01T10:38:18;5.57;;;5.17;;
2486;SDS011;1254;49.144;8.212;2022-09-01T10:40:49;5.90;;;5.37;;
2486;SDS011;1254;49.144;8.212;2022-09-01T10:46:09;5.60;;;5.20;;
2486;SDS011;1254;49.144;8.212;2022-09-01T10:48:43;5.60;;;5.27;;
2486;SDS011;1254;49.144;8.212;2022-09-01T10:53:50;8.60;;;7.50;;
2486;SDS011;1254;49.144;8.212;2022-09-01T10:57:03;6.50;;;6.00;;
2486;SDS011;1254;49.144;8.212;2022-09-01T11:05:08;6.43;;;5.93;;
2486;SDS011;1254;49.144;8.212;2022-09-01T11:15:35;6.10;;;5.57;;
2486;SDS011;1254;49.144;8.212;2022-09-01T11:18:06;6.50;;;6.00;;
2486;SDS011;1254;49.144;8.212;2022-09-01T11:20:40;7.10;;;6.03;;
2486;SDS011;1254;49.144;8.212;2022-09-01T11:23:24;6.80;;;6.27;;
2486;SDS011;1254;49.144;8.212;2022-09-01T11:25:54;5.97;;;5.53;;
2486;SDS011;1254;49.144;8.212;2022-09-01T11:31:01;5.30;;;5.00;;
2486;SDS011;1254;49.144;8.212;2022-09-01T11:33:37;6.53;;;6.03;;
2486;SDS011;1254;49.144;8.212;2022-09-01T11:36:14;9.23;;;5.90;;
2486;SDS011;1254;49.144;8.212;2022-09-01T11:38:47;6.83;;;6.23;;
2486;SDS011;1254;49.144;8.212;2022-09-01T11:41:19;6.20;;;5.80;;
2486;SDS011;1254;49.144;8.212;2022-09-01T11:43:49;6.07;;;5.67;;
2486;SDS011;1254;49.144;8.212;2022-09-01T11:46:37;6.03;;;5.50;;
2486;SDS011;1254;49.144;8.212;2022-09-01T11:49:14;6.10;;;5.70;;
2486;SDS011;1254;49.144;8.212;2022-09-01T11:51:54;5.70;;;5.30;;
2486;SDS011;1254;49.144;8.212;2022-09-01T11:54:27;8.63;;;5.60;;
2486;SDS011;1254;49.144;8.212;2022-09-01T11:57:15;6.30;;;5.90;;
2486;SDS011;1254;49.144;8.212;2022-09-01T11:59:53;5.40;;;5.10;;
2486;SDS011;1254;49.144;8.212;2022-09-01T12:02:24;5.20;;;4.90;;
2486;SDS011;1254;49.144;8.212;2022-09-01T12:04:54;6.03;;;5.50;;
2486;SDS011;1254;49.144;8.212;2022-09-01T12:10:27;5.90;;;5.50;;
2486;SDS011;1254;49.144;8.212;2022-09-01T12:12:59;6.23;;;5.77;;
2486;SDS011;1254;49.144;8.212;2022-09-01T12:15:34;5.30;;;5.00;;
2486;SDS011;1254;49.144;8.212;2022-09-01T12:20:47;5.80;;;5.50;;
2486;SDS011;1254;49.144;8.212;2022-09-01T12:23:29;5.43;;;5.13;;
2486;SDS011;1254;49.144;8.212;2022-09-01T12:25:58;5.53;;;5.10;;
2486;SDS011;1254;49.144;8.212;2022-09-01T12:28:33;5.77;;;5.37;;
2486;SDS011;1254;49.144;8.212;2022-09-01T12:31:01;6.10;;;5.70;;
2486;SDS011;1254;49.144;8.212;2022-09-01T12:33:30;6.70;;;5.83;;
2486;SDS011;1254;49.144;8.212;2022-09-01T12:38:55;5.83;;;5.43;;
2486;SDS011;1254;49.144;8.212;2022-09-01T12:41:43;6.10;;;5.70;;
2486;SDS011;1254;49.144;8.212;2022-09-01T12:47:01;6.13;;;5.63;;
2486;SDS011;1254;49.144;8.212;2022-09-01T12:49:43;5.83;;;5.43;;
2486;SDS011;1254;49.144;8.212;2022-09-01T12:54:45;7.40;;;5.20;;
2486;SDS011;1254;49.144;8.212;2022-09-01T12:57:26;5.63;;;5.33;;
2486;SDS011;1254;49.144;8.212;2022-09-01T13:02:39;5.73;;;5.23;;
2486;SDS011;1254;49.144;8.212;2022-09-01T13:08:05;6.07;;;5.70;;
2486;SDS011;1254;49.144;8.212;2022-09-01T13:10:34;6.23;;;5.83;;
2486;SDS011;1254;49.144;8.212;2022-09-01T13:13:07;6.43;;;5.70;;
2486;SDS011;1254;49.144;8.212;2022-09-01T13:15:35;7.77;;;5.53;;
2486;SDS011;1254;49.144;8.212;2022-09-01T13:18:03;6.33;;;5.83;;
2486;SDS011;1254;49.144;8.212;2022-09-01T13:20:30;5.70;;;5.30;;
2486;SDS011;1254;49.144;8.212;2022-09-01T13:22:59;7.00;;;5.50;;
2486;SDS011;1254;49.144;8.212;2022-09-01T13:25:26;5.10;;;4.60;;
2486;SDS011;1254;49.144;8.212;2022-09-01T13:27:52;5.63;;;5.23;;
2486;SDS011;1254;49.144;8.212;2022-09-01T13:30:21;4.33;;;4.10;;
2486;SDS011;1254;49.144;8.212;2022-09-01T13:32:53;4.83;;;4.47;;
2486;SDS011;1254;49.144;8.212;2022-09-01T13:35:20;5.13;;;4.67;;
2486;SDS011;1254;49.144;8.212;2022-09-01T13:37:48;5.30;;;5.00;;
2486;SDS011;1254;49.144;8.212;2022-09-01T13:40:18;4.77;;;4.57;;
2486;SDS011;1254;49.144;8.212;2022-09-01T13:42:50;4.60;;;4.40;;
2486;SDS011;1254;49.144;8.212;2022-09-01T13:45:18;5.20;;;4.80;;
2486;SDS011;1254;49.144;8.212;2022-09-01T13:47:49;5.33;;;4.93;;
2486;SDS011;1254;49.144;8.212;2022-09-01T13:50:17;5.60;;;5.20;;
2486;SDS011;1254;49.144;8.212;2022-09-01T13:52:46;4.20;;;3.87;;
2486;SDS011;1254;49.144;8.212;2022-09-01T13:55:16;5.30;;;5.00;;
2486;SDS011;1254;49.144;8.212;2022-09-01T13:57:45;5.67;;;5.20;;
2486;SDS011;1254;49.144;8.212;2022-09-01T14:00:16;4.50;;;4.10;;
2486;SDS011;1254;49.144;8.212;2022-09-01T14:02:46;4.10;;;3.90;;
2486;SDS011;1254;49.144;8.212;2022-09-01T14:05:15;4.90;;;4.60;;
2486;SDS011;1254;49.144;8.212;2022-09-01T14:07:43;5.40;;;4.30;;
2486;SDS011;1254;49.144;8.212;2022-09-01T14:10:09;4.90;;;4.50;;
2486;SDS011;1254;49.144;8.212;2022-09-01T14:12:36;6.77;;;4.90;;
2486;SDS011;1254;49.144;8.212;2022-09-01T14:15:04;4.70;;;4.40;;
2486;SDS011;1254;49.144;8.212;2022-09-01T14:17:31;4.90;;;4.60;;
2486;SDS011;1254;49.144;8.212;2022-09-01T14:19:59;5.10;;;4.90;;
2486;SDS011;1254;49.144;8.212;2022-09-01T14:22:25;5.90;;;4.43;;
2486;SDS011;1254;49.144;8.212;2022-09-01T14:24:52;4.60;;;4.30;;
2486;SDS011;1254;49.144;8.212;2022-09-01T14:27:18;4.40;;;4.20;;
2486;SDS011;1254;49.144;8.212;2022-09-01T14:29:49;5.03;;;4.53;;
2486;SDS011;1254;49.144;8.212;2022-09-01T14:32:15;4.40;;;4.00;;
2486;SDS011;1254;49.144;8.212;2022-09-01T14:34:42;4.60;;;4.30;;
2486;SDS011;1254;49.144;8.212;2022-09-01T14:37:09;3.97;;;3.77;;
2486;SDS011;1254;49.144;8.212;2022-09-01T14:39:36;3.80;;;3.50;;
2486;SDS011;1254;49.144;8.212;2022-09-01T14:42:03;4.00;;;3.80;;
2486;SDS011;1254;49.144;8.212;2022-09-01T14:44:35;3.50;;;3.30;;
2486;SDS011;1254;49.144;8.212;2022-09-01T14:47:03;3.60;;;3.50;;
2486;SDS011;1254;49.144;8.212;2022-09-01T14:49:33;4.30;;;4.00;;
2486;SDS011;1254;49.144;8.212;2022-09-01T14:52:05;4.27;;;3.90;;
2486;SDS011;1254;49.144;8.212;2022-09-01T14:54:33;3.70;;;3.50;;
2486;SDS011;1254;49.144;8.212;2022-09-01T14:57:02;3.40;;;3.30;;
2486;SDS011;1254;49.144;8.212;2022-09-01T14:59:29;4.23;;;4.03;;
2486;SDS011;1254;49.144;8.212;2022-09-01T15:01:56;4.10;;;3.90;;
2486;SDS011;1254;49.144;8.212;2022-09-01T15:04:23;3.93;;;3.60;;
2486;SDS011;1254;49.144;8.212;2022-09-01T15:06:49;4.87;;;4.37;;
2486;SDS011;1254;49.144;8.212;2022-09-01T15:09:16;4.00;;;3.60;;
2486;SDS011;1254;49.144;8.212;2022-09-01T15:11:42;3.90;;;3.60;;
2486;SDS011;1254;49.144;8.212;2022-09-01T15:14:09;3.73;;;3.53;;
2486;SDS011;1254;49.144;8.212;2022-09-01T15:16:35;4.07;;;3.87;;
2486;SDS011;1254;49.144;8.212;2022-09-01T15:19:06;3.77;;;3.57;;
2486;SDS011;1254;49.144;8.212;2022-09-01T15:21:35;5.60;;;3.23;;
2486;SDS011;1254;49.144;8.212;2022-09-01T15:24:04;3.40;;;3.30;;
2486;SDS011;1254;49.144;8.212;2022-09-01T15:26:31;3.47;;;3.30;;
2486;SDS011;1254;49.144;8.212;2022-09-01T15:28:59;4.10;;;3.90;;
2486;SDS011;1254;49.144;8.212;2022-09-01T15:31:29;4.13;;;3.70;;
2486;SDS011;1254;49.144;8.212;2022-09-01T15:33:58;6.00;;;3.57;;
2486;SDS011;1254;49.144;8.212;2022-09-01T15:36:27;3.87;;;3.53;;
2486;SDS011;1254;49.144;8.212;2022-09-01T15:38:55;3.43;;;3.33;;
2486;SDS011;1254;49.144;8.212;2022-09-01T15:41:24;3.57;;;3.47;;
2486;SDS011;1254;49.144;8.212;2022-09-01T15:43:52;3.13;;;3.03;;
2486;SDS011;1254;49.144;8.212;2022-09-01T15:46:19;3.23;;;3.13;;
2486;SDS011;1254;49.144;8.212;2022-09-01T15:48:46;4.13;;;3.80;;
2486;SDS011;1254;49.144;8.212;2022-09-01T15:53:48;4.00;;;3.70;;
2486;SDS011;1254;49.144;8.212;2022-09-01T15:56:16;3.83;;;3.63;;
2486;SDS011;1254;49.144;8.212;2022-09-01T15:58:43;4.00;;;3.70;;
2486;SDS011;1254;49.144;8.212;2022-09-01T16:01:10;4.20;;;3.80;;
2486;SDS011;1254;49.144;8.212;2022-09-01T16:03:37;4.33;;;4.13;;
2486;SDS011;1254;49.144;8.212;2022-09-01T16:06:04;3.60;;;3.40;;
2486;SDS011;1254;49.144;8.212;2022-09-01T16:08:32;3.50;;;3.30;;
2486;SDS011;1254;49.144;8.212;2022-09-01T16:10:59;3.73;;;3.53;;
2486;SDS011;1254;49.144;8.212;2022-09-01T16:13:27;3.90;;;3.53;;
2486;SDS011;1254;49.144;8.212;2022-09-01T16:16:39;4.10;;;3.80;;
2486;SDS011;1254;49.144;8.212;2022-09-01T16:18:45;3.77;;;3.50;;
2486;SDS011;1254;49.144;8.212;2022-09-01T16:24:32;3.50;;;3.37;;
2486;SDS011;1254;49.144;8.212;2022-09-01T16:27:07;4.17;;;3.97;;
2486;SDS011;1254;49.144;8.212;2022-09-01T16:29:38;4.37;;;4.07;;
2486;SDS011;1254;49.144;8.212;2022-09-01T16:32:10;4.23;;;3.93;;
2486;SDS011;1254;49.144;8.212;2022-09-01T16:34:38;4.83;;;4.43;;
2486;SDS011;1254;49.144;8.212;2022-09-01T16:37:24;3.67;;;3.47;;
2486;SDS011;1254;49.144;8.212;2022-09-01T16:43:04;3.77;;;3.53;;
2486;SDS011;1254;49.144;8.212;2022-09-01T16:48:44;5.27;;;4.37;;
2486;SDS011;1254;49.144;8.212;2022-09-01T16:51:25;4.20;;;4.00;;